Time;durP1;ratioP1;P1;durP2;ratioP2;P2;SDS_P1;SDS_P2;PMS_P1;PMS_P2;Temp;Humidity;BMP_temperature;BMP_pressure;BME280_temperature;BME280_humidity;BME280_pressure;Samples;Min_cycle;Max_cycle;Signal;HPM_P1;HPM_P2
2022/03/21 00:01:08;;;;;;;51.30;28.52;;;6.10;99.90;;;;;;5065901;28;20076;-83
2022/03/21 00:03:34;;;;;;;47.60;28.10;;;6.10;99.90;;;;;;5066704;28;20404;-82
2022/03/21 00:06:00;;;;;;;46.78;28.45;;;7.30;99.90;;;;;;5049309;28;20040;-82
2022/03/21 00:08:26;;;;;;;47.47;28.25;;;6.10;99.90;;;;;;5066153;28;20076;-82
2022/03/21 00:10:54;;;;;;;47.17;29.17;;;6.20;99.90;;;;;;5033267;28;20059;-82
2022/03/21 00:13:22;;;;;;;44.20;28.75;;;6.30;99.90;;;;;;5066754;28;20048;-82
2022/03/21 00:15:50;;;;;;;44.95;27.00;;;7.50;99.90;;;;;;5067102;28;20100;-83
2022/03/21 00:18:16;;;;;;;45.28;27.88;;;7.00;99.90;;;;;;5065378;28;20124;-82
2022/03/21 00:20:45;;;;;;;44.30;25.80;;;6.30;99.90;;;;;;5066192;28;20066;-83
2022/03/21 00:23:12;;;;;;;45.83;25.75;;;6.40;99.90;;;;;;5067485;28;20095;-82
2022/03/21 00:25:38;;;;;;;44.15;26.08;;;6.40;99.90;;;;;;5065201;28;20067;-81
2022/03/21 00:28:08;;;;;;;41.40;25.00;;;6.40;99.90;;;;;;5050098;28;20138;-82
2022/03/21 00:30:34;;;;;;;40.97;23.00;;;6.40;99.90;;;;;;5064959;28;20041;-82
2022/03/21 00:33:00;;;;;;;33.92;22.17;;;6.50;99.90;;;;;;5048992;28;20040;-82
2022/03/21 00:35:28;;;;;;;37.97;22.63;;;6.50;99.90;;;;;;5065704;28;20435;-82
2022/03/21 00:37:54;;;;;;;40.45;23.23;;;6.50;99.90;;;;;;5048187;28;20036;-82
2022/03/21 00:40:20;;;;;;;37.58;22.27;;;6.50;99.90;;;;;;5065232;28;20049;-82
2022/03/21 00:42:47;;;;;;;38.72;22.42;;;6.50;99.90;;;;;;5047828;28;20044;-82
2022/03/21 00:45:18;;;;;;;39.70;22.33;;;6.50;99.90;;;;;;5067083;28;20033;-83
2022/03/21 00:47:46;;;;;;;37.88;21.05;;;6.50;99.90;;;;;;5064567;28;20075;-83
2022/03/21 00:50:14;;;;;;;36.50;21.25;;;7.10;99.90;;;;;;5066087;28;20044;-83
2022/03/21 00:52:49;;;;;;;36.42;20.67;;;6.40;99.90;;;;;;5065355;28;20051;-82
2022/03/21 00:55:17;;;;;;;34.58;19.67;;;6.40;99.90;;;;;;5065978;28;20055;-82
2022/03/21 00:57:44;;;;;;;36.95;20.00;;;6.50;99.90;;;;;;5065521;28;20055;-82
2022/03/21 01:00:19;;;;;;;34.45;20.48;;;6.40;99.90;;;;;;5064228;28;20055;-82
2022/03/21 01:02:45;;;;;;;33.42;18.42;;;6.40;99.90;;;;;;5065189;28;20048;-82
2022/03/21 01:05:11;;;;;;;34.75;19.48;;;6.40;99.90;;;;;;5031697;28;20048;-82
2022/03/21 01:07:38;;;;;;;30.30;17.98;;;6.40;99.90;;;;;;5064662;28;20052;-81
2022/03/21 01:10:05;;;;;;;30.33;18.05;;;6.30;99.90;;;;;;5048826;28;20420;-81
2022/03/21 01:12:32;;;;;;;28.05;16.92;;;6.30;99.90;;;;;;5064612;28;20075;-81
2022/03/21 01:14:58;;;;;;;30.63;17.63;;;6.80;99.90;;;;;;5066768;28;20048;-82
2022/03/21 01:17:24;;;;;;;30.38;17.10;;;6.30;99.90;;;;;;5065927;28;20033;-82
2022/03/21 01:19:49;;;;;;;30.00;16.95;;;6.80;99.90;;;;;;5048141;28;20055;-82
2022/03/21 01:22:16;;;;;;;34.08;16.98;;;6.30;99.90;;;;;;5064561;28;20048;-82
2022/03/21 01:24:41;;;;;;;27.52;15.80;;;6.40;99.90;;;;;;5047472;28;20059;-82
2022/03/21 01:27:08;;;;;;;28.80;16.27;;;6.50;99.90;;;;;;5065941;28;20056;-80
2022/03/21 01:29:34;;;;;;;30.75;17.23;;;6.30;99.90;;;;;;5064136;28;20040;-82
2022/03/21 01:32:00;;;;;;;31.17;16.42;;;6.30;99.90;;;;;;5066419;28;20083;-83
2022/03/21 01:34:26;;;;;;;27.98;15.32;;;6.30;99.90;;;;;;5030680;28;20063;-81
2022/03/21 01:36:52;;;;;;;25.67;15.45;;;6.30;99.90;;;;;;5047978;28;20041;-83
2022/03/21 01:39:17;;;;;;;30.30;15.20;;;6.30;99.90;;;;;;5065594;28;20044;-80
2022/03/21 01:41:43;;;;;;;33.53;15.27;;;6.30;99.90;;;;;;5064098;28;20115;-82
2022/03/21 01:44:10;;;;;;;28.95;14.70;;;6.30;99.90;;;;;;5048009;28;20072;-80
2022/03/21 01:46:37;;;;;;;27.50;15.80;;;6.30;99.90;;;;;;5063808;28;20044;-82
2022/03/21 01:49:06;;;;;;;26.92;14.13;;;6.30;99.90;;;;;;5048244;28;20119;-82
2022/03/21 01:51:32;;;;;;;30.15;15.73;;;6.30;99.90;;;;;;5066557;28;20048;-82
2022/03/21 01:56:47;;;;;;;26.98;14.43;;;6.10;99.90;;;;;;5068241;28;20055;-82
2022/03/21 01:59:14;;;;;;;21.48;13.63;;;6.50;99.90;;;;;;5068043;28;20056;-81
2022/03/21 02:01:40;;;;;;;25.95;15.20;;;6.10;99.90;;;;;;5068465;28;20051;-83
2022/03/21 02:04:07;;;;;;;22.95;14.05;;;6.70;99.90;;;;;;5051018;28;20078;-82
2022/03/21 02:06:33;;;;;;;23.42;14.30;;;5.90;99.90;;;;;;5051787;28;20080;-82
2022/03/21 02:09:01;;;;;;;27.00;14.35;;;5.90;99.90;;;;;;5051139;28;20048;-82
2022/03/21 02:11:28;;;;;;;21.55;13.57;;;5.90;99.90;;;;;;5069014;28;20044;-82
2022/03/21 02:13:55;;;;;;;23.30;13.90;;;5.80;99.90;;;;;;5068828;28;20132;-83
2022/03/21 02:16:25;;;;;;;24.67;13.75;;;5.80;99.90;;;;;;5067552;28;20040;-82
2022/03/21 02:18:52;;;;;;;25.40;14.45;;;5.70;99.90;;;;;;5051874;28;20102;-82
2022/03/21 02:21:32;;;;;;;25.40;14.70;;;5.60;99.90;;;;;;5067696;28;20462;-82
2022/03/21 02:24:39;;;;;;;23.92;13.82;;;5.60;99.90;;;;;;5051341;28;20056;-82
2022/03/21 02:27:07;;;;;;;28.20;14.68;;;5.50;99.90;;;;;;5067359;28;20055;-82
2022/03/21 02:29:34;;;;;;;30.05;14.85;;;5.40;99.90;;;;;;5067504;28;20105;-83
2022/03/21 02:32:00;;;;;;;26.17;14.02;;;5.40;99.90;;;;;;5035184;28;20078;-83
2022/03/21 02:34:26;;;;;;;27.40;15.45;;;5.30;99.90;;;;;;5067275;28;20044;-83
2022/03/21 02:36:56;;;;;;;23.48;13.80;;;5.30;99.90;;;;;;5034426;28;20044;-82
2022/03/21 02:39:23;;;;;;;32.03;15.52;;;5.20;99.90;;;;;;5067448;28;20040;-82
2022/03/21 02:41:49;;;;;;;24.17;12.82;;;5.20;99.90;;;;;;5067508;28;20583;-82
2022/03/21 02:44:14;;;;;;;22.52;13.52;;;5.10;99.90;;;;;;5051270;28;20123;-82
2022/03/21 02:46:40;;;;;;;24.05;14.10;;;5.10;99.90;;;;;;5067222;28;20047;-82
2022/03/21 02:49:06;;;;;;;26.52;14.00;;;5.00;99.90;;;;;;5067453;28;20450;-82
2022/03/21 02:51:38;;;;;;;25.30;12.88;;;5.00;99.90;;;;;;5066843;28;20123;-82
2022/03/21 02:54:04;;;;;;;24.23;14.10;;;5.00;99.90;;;;;;5068964;28;20445;-82
2022/03/21 02:56:29;;;;;;;22.77;12.93;;;4.90;99.90;;;;;;5068473;28;20044;-82
2022/03/21 02:58:55;;;;;;;25.30;13.77;;;4.90;99.90;;;;;;5068392;28;20512;-82
2022/03/21 03:01:21;;;;;;;22.80;13.25;;;4.90;99.90;;;;;;5068378;28;20048;-82
2022/03/21 03:03:46;;;;;;;24.77;13.05;;;4.90;99.90;;;;;;5067288;28;20049;-82
2022/03/21 03:06:12;;;;;;;29.73;13.43;;;4.90;99.90;;;;;;5068924;28;20067;-82
2022/03/21 03:08:40;;;;;;;28.15;13.27;;;5.00;99.90;;;;;;5067820;28;20117;-81
2022/03/21 03:11:06;;;;;;;27.02;14.15;;;5.00;99.90;;;;;;5066862;28;20127;-82
2022/03/21 03:13:32;;;;;;;26.30;14.43;;;4.90;99.90;;;;;;5068065;28;20132;-82
2022/03/21 03:15:58;;;;;;;32.95;14.95;;;4.90;99.90;;;;;;5067872;28;20056;-82
2022/03/21 03:18:24;;;;;;;30.40;15.20;;;4.90;99.90;;;;;;5050462;28;20283;-81
2022/03/21 03:20:52;;;;;;;26.92;14.05;;;4.90;99.90;;;;;;5066607;28;20326;-82
2022/03/21 03:23:20;;;;;;;26.30;14.57;;;4.90;99.90;;;;;;5050394;28;20055;-81
2022/03/21 03:25:47;;;;;;;27.20;13.98;;;4.80;99.90;;;;;;5066067;28;20492;-81
2022/03/21 03:28:13;;;;;;;28.08;14.07;;;4.80;99.90;;;;;;5066655;28;20044;-81
2022/03/21 03:30:40;;;;;;;26.00;14.07;;;4.80;99.90;;;;;;5049984;28;20048;-82
2022/03/21 03:33:07;;;;;;;25.70;14.70;;;5.80;99.90;;;;;;5049604;28;20044;-82
2022/03/21 03:35:33;;;;;;;27.40;13.85;;;4.80;99.90;;;;;;5066908;28;20048;-82
2022/03/21 03:37:59;;;;;;;27.15;14.18;;;4.70;99.90;;;;;;5066270;28;20056;-83
2022/03/21 03:40:24;;;;;;;26.65;14.10;;;4.70;99.90;;;;;;5068053;28;20048;-83
2022/03/21 03:42:50;;;;;;;23.55;14.25;;;4.70;99.90;;;;;;5065665;28;20443;-83
2022/03/21 03:45:16;;;;;;;26.90;13.43;;;4.60;99.90;;;;;;5067901;28;20044;-83
2022/03/21 03:47:42;;;;;;;22.80;12.95;;;4.60;99.90;;;;;;5066173;28;20040;-83
2022/03/21 03:50:08;;;;;;;23.90;13.75;;;4.50;99.90;;;;;;5049599;28;20086;-82
2022/03/21 03:52:34;;;;;;;21.65;13.80;;;4.50;99.90;;;;;;5066139;28;20047;-83
2022/03/21 03:55:00;;;;;;;29.38;14.00;;;4.50;99.90;;;;;;5065896;28;20040;-83
2022/03/21 03:57:26;;;;;;;25.27;12.73;;;4.50;99.90;;;;;;5049761;28;20474;-83
2022/03/21 03:59:52;;;;;;;23.73;13.02;;;4.40;99.90;;;;;;5032677;28;20079;-83
2022/03/21 04:02:18;;;;;;;22.75;13.27;;;4.50;99.90;;;;;;5049270;28;20385;-82
2022/03/21 04:04:43;;;;;;;22.88;12.43;;;4.40;99.90;;;;;;5065257;28;20111;-83
2022/03/21 04:07:09;;;;;;;27.60;13.20;;;4.30;99.90;;;;;;5049777;28;20037;-83
2022/03/21 04:09:35;;;;;;;24.45;12.95;;;4.40;99.90;;;;;;5066971;28;20056;-82
2022/03/21 04:12:02;;;;;;;21.42;12.50;;;4.30;99.90;;;;;;5066733;28;20087;-81
2022/03/21 04:14:28;;;;;;;28.52;13.35;;;4.30;99.90;;;;;;5049496;28;20545;-82
2022/03/21 04:16:54;;;;;;;25.00;13.32;;;4.30;99.90;;;;;;5065578;28;20040;-82
2022/03/21 04:19:20;;;;;;;27.35;14.25;;;4.30;99.90;;;;;;5065474;28;20049;-82
2022/03/21 04:21:46;;;;;;;23.13;13.52;;;4.30;99.90;;;;;;5048892;28;20426;-81
2022/03/21 04:24:12;;;;;;;26.17;13.23;;;4.40;99.90;;;;;;5065588;28;20053;-81
2022/03/21 04:26:38;;;;;;;24.02;14.18;;;4.20;99.90;;;;;;5065139;28;20052;-81
2022/03/21 04:29:04;;;;;;;23.92;12.65;;;4.20;99.90;;;;;;5066728;28;20124;-82
2022/03/21 04:31:32;;;;;;;18.52;11.80;;;4.10;99.90;;;;;;5067122;28;20044;-82
2022/03/21 04:33:57;;;;;;;24.95;12.75;;;4.00;99.90;;;;;;5066357;28;20074;-83
2022/03/21 04:36:23;;;;;;;22.67;12.77;;;4.00;99.90;;;;;;5067305;28;20051;-83
2022/03/21 04:38:49;;;;;;;26.92;12.77;;;3.90;99.90;;;;;;5065025;28;20535;-83
2022/03/21 04:41:15;;;;;;;28.35;11.88;;;2.70;99.90;;;;;;5065742;28;20086;-82
2022/03/21 04:43:41;;;;;;;22.88;12.88;;;3.80;99.90;;;;;;5048970;28;20048;-83
2022/03/21 04:46:07;;;;;;;24.88;13.57;;;3.80;99.90;;;;;;5066233;28;20051;-83
2022/03/21 04:48:33;;;;;;;23.63;12.68;;;3.80;99.90;;;;;;5067035;28;20063;-82
2022/03/21 04:50:59;;;;;;;22.80;13.20;;;3.70;99.90;;;;;;5065263;28;20048;-82
2022/03/21 04:53:25;;;;;;;25.90;14.20;;;3.70;99.90;;;;;;5066935;28;20051;-82
2022/03/21 04:55:51;;;;;;;28.00;13.63;;;3.70;99.90;;;;;;5047774;28;20043;-82
2022/03/21 04:58:17;;;;;;;27.83;14.63;;;3.70;99.90;;;;;;5066458;28;20088;-82
2022/03/21 05:00:44;;;;;;;24.08;13.05;;;3.70;99.90;;;;;;5066366;28;20146;-82
2022/03/21 05:03:10;;;;;;;26.08;13.98;;;3.60;99.90;;;;;;5064392;28;20047;-82
2022/03/21 05:05:36;;;;;;;25.20;13.68;;;3.60;99.90;;;;;;5065086;28;20103;-81
2022/03/21 05:08:03;;;;;;;25.20;12.50;;;3.60;99.90;;;;;;5065801;28;20049;-81
2022/03/21 05:10:30;;;;;;;21.45;12.68;;;3.50;99.90;;;;;;5066290;28;20048;-81
2022/03/21 05:12:57;;;;;;;21.60;12.82;;;3.50;99.90;;;;;;5064114;28;20041;-82
2022/03/21 05:15:23;;;;;;;22.08;13.18;;;3.50;99.90;;;;;;5064834;28;20052;-81
2022/03/21 05:17:51;;;;;;;25.10;14.02;;;3.40;99.90;;;;;;5065136;28;20416;-82
2022/03/21 05:20:17;;;;;;;23.85;12.68;;;3.30;99.90;;;;;;5064479;28;20044;-80
2022/03/21 05:31:07;;;;;;;24.00;13.43;;;3.20;99.90;;;;;;5072860;28;20052;-80
2022/03/21 05:36:21;;;;;;;21.77;13.02;;;3.30;99.90;;;;;;5072768;28;20051;-81
2022/03/21 05:38:46;;;;;;;23.25;13.23;;;3.00;99.90;;;;;;5072062;28;20143;-81
2022/03/21 05:41:12;;;;;;;22.30;13.15;;;3.00;99.90;;;;;;5071385;28;20108;-81
2022/03/21 05:43:38;;;;;;;24.05;13.05;;;3.00;99.90;;;;;;5071066;28;20072;-83
2022/03/21 05:46:04;;;;;;;29.90;15.80;;;2.90;99.90;;;;;;5054257;28;20086;-82
2022/03/21 05:51:17;;;;;;;27.38;14.38;;;3.00;99.90;;;;;;5071040;28;20080;-81
2022/03/21 05:53:44;;;;;;;27.20;12.68;;;2.90;99.90;;;;;;5071429;28;20114;-80
2022/03/21 05:56:10;;;;;;;24.05;13.23;;;2.90;99.90;;;;;;5070701;28;20044;-82
2022/03/21 05:58:36;;;;;;;26.67;14.30;;;2.90;99.90;;;;;;5070669;28;20051;-79
2022/03/21 06:01:02;;;;;;;23.02;12.20;;;2.90;99.90;;;;;;5054434;28;20051;-79
2022/03/21 06:03:27;;;;;;;26.08;12.52;;;2.90;99.90;;;;;;5070707;28;20428;-79
2022/03/21 06:05:57;;;;;;;26.25;13.52;;;3.80;99.90;;;;;;5071013;28;20036;-80
2022/03/21 06:08:24;;;;;;;21.67;12.80;;;2.90;99.90;;;;;;5070981;28;20377;-80
2022/03/21 06:10:50;;;;;;;21.42;12.77;;;2.90;99.90;;;;;;5072598;28;20460;-78
2022/03/21 06:13:16;;;;;;;24.70;13.00;;;2.90;99.90;;;;;;5071745;28;20125;-79
2022/03/21 06:15:42;;;;;;;25.27;14.02;;;2.90;99.90;;;;;;5071052;28;20079;-79
2022/03/21 06:18:09;;;;;;;21.80;12.15;;;3.30;99.90;;;;;;5054683;28;20131;-78
2022/03/21 06:20:36;;;;;;;32.85;13.82;;;2.90;99.90;;;;;;5037405;28;20044;-78
2022/03/21 06:23:02;;;;;;;26.55;12.38;;;2.90;99.90;;;;;;5072385;28;20044;-78
2022/03/21 06:25:28;;;;;;;29.27;14.20;;;3.00;99.90;;;;;;5071334;28;20044;-78
2022/03/21 06:27:55;;;;;;;28.48;14.02;;;3.00;99.90;;;;;;5071903;28;20143;-77
2022/03/21 06:30:21;;;;;;;24.73;13.32;;;3.00;99.90;;;;;;5070149;28;20113;-78
2022/03/21 06:32:47;;;;;;;27.85;14.52;;;3.00;99.90;;;;;;5072304;28;20074;-77
2022/03/21 06:35:13;;;;;;;26.75;13.30;;;3.10;99.90;;;;;;5072409;28;20076;-77
2022/03/21 06:37:41;;;;;;;37.60;15.00;;;4.10;99.90;;;;;;5070346;28;20078;-78
2022/03/21 06:40:08;;;;;;;29.60;15.18;;;4.00;99.90;;;;;;5066895;28;20036;-78
2022/03/21 06:42:34;;;;;;;30.27;15.35;;;3.30;99.90;;;;;;5068416;28;20040;-78
2022/03/21 06:45:00;;;;;;;24.35;13.88;;;3.40;99.90;;;;;;5067288;28;20044;-78
2022/03/21 06:47:25;;;;;;;27.23;15.48;;;3.50;99.90;;;;;;5067078;28;20043;-78
2022/03/21 06:49:51;;;;;;;30.83;15.93;;;3.60;99.90;;;;;;5068105;28;20090;-78
2022/03/21 06:52:18;;;;;;;34.95;15.77;;;3.70;99.90;;;;;;5068903;28;20110;-78
2022/03/21 06:54:45;;;;;;;29.55;16.92;;;3.80;99.90;;;;;;5067186;28;20040;-78
2022/03/21 06:57:12;;;;;;;28.00;15.50;;;3.90;99.90;;;;;;5067526;28;20068;-78
2022/03/21 06:59:38;;;;;;;27.75;15.65;;;4.00;99.90;;;;;;5068280;28;20049;-78
2022/03/21 07:02:04;;;;;;;33.40;17.13;;;4.10;99.90;;;;;;5068231;28;20114;-78
2022/03/21 07:04:31;;;;;;;29.95;16.90;;;4.90;99.90;;;;;;5067855;28;20045;-78
2022/03/21 07:06:57;;;;;;;32.05;16.77;;;4.30;99.90;;;;;;5068568;28;20045;-78
2022/03/21 07:09:24;;;;;;;32.70;17.88;;;4.40;99.90;;;;;;5068476;28;20095;-78
2022/03/21 07:11:51;;;;;;;31.60;18.67;;;4.50;99.90;;;;;;5068116;28;20048;-78
2022/03/21 07:14:17;;;;;;;32.47;18.65;;;4.70;99.90;;;;;;5067228;28;20080;-78
2022/03/21 07:16:43;;;;;;;29.55;18.25;;;5.20;99.90;;;;;;5066078;28;20048;-78
2022/03/21 07:19:09;;;;;;;35.08;19.83;;;5.00;99.90;;;;;;5068400;28;20048;-77
2022/03/21 07:21:35;;;;;;;37.55;18.90;;;5.20;99.90;;;;;;5066491;28;20450;-78
2022/03/21 07:24:00;;;;;;;40.22;20.42;;;5.30;99.90;;;;;;5068114;28;20036;-78
2022/03/21 07:26:26;;;;;;;35.00;19.73;;;5.50;99.90;;;;;;5066190;28;20471;-76
2022/03/21 07:28:52;;;;;;;36.03;20.20;;;5.60;99.90;;;;;;5067520;28;20068;-78
2022/03/21 07:31:18;;;;;;;31.90;19.95;;;5.70;99.90;;;;;;5068012;28;20091;-77
2022/03/21 07:33:43;;;;;;;44.58;21.50;;;5.90;99.90;;;;;;5067194;28;20036;-78
2022/03/21 07:36:10;;;;;;;34.92;19.75;;;6.90;99.90;;;;;;5067944;28;20055;-77
2022/03/21 07:38:37;;;;;;;34.10;20.35;;;6.80;99.90;;;;;;5067356;28;20424;-78
2022/03/21 07:41:07;;;;;;;31.38;18.73;;;7.60;99.90;;;;;;5049736;28;20419;-77
2022/03/21 07:43:37;;;;;;;31.63;18.08;;;6.60;99.90;;;;;;5066529;28;20056;-78
2022/03/21 07:48:49;;;;;;;30.83;17.80;;;6.90;99.90;;;;;;5052171;28;20087;-77
2022/03/21 07:51:15;;;;;;;31.40;16.63;;;7.00;99.90;;;;;;5065175;28;20048;-78
2022/03/21 07:53:43;;;;;;;32.15;17.13;;;7.20;99.90;;;;;;5049508;28;20067;-78
2022/03/21 07:56:08;;;;;;;27.95;16.83;;;7.30;99.90;;;;;;5065630;28;20044;-78
2022/03/21 07:58:35;;;;;;;34.47;16.80;;;8.10;99.90;;;;;;5049449;28;20055;-79
2022/03/21 08:01:02;;;;;;;29.13;16.15;;;7.60;99.90;;;;;;5049557;28;20418;-79
2022/03/21 08:03:28;;;;;;;30.13;16.55;;;7.70;99.90;;;;;;5065334;28;20064;-79
2022/03/21 08:05:57;;;;;;;27.30;14.20;;;7.90;99.90;;;;;;5066556;28;20423;-79
2022/03/21 08:08:23;;;;;;;28.02;14.95;;;8.00;99.90;;;;;;5065026;28;20047;-79
2022/03/21 08:10:48;;;;;;;31.90;15.40;;;8.10;99.90;;;;;;5065923;28;20604;-79
2022/03/21 08:13:17;;;;;;;31.98;15.80;;;8.20;99.90;;;;;;5065362;28;20045;-80
2022/03/21 08:15:44;;;;;;;27.52;14.85;;;8.30;99.90;;;;;;5048947;28;20098;-80
2022/03/21 08:18:11;;;;;;;24.15;14.50;;;8.40;99.90;;;;;;5066148;28;20043;-79
2022/03/21 08:20:39;;;;;;;32.53;14.85;;;8.50;99.90;;;;;;5049072;28;20131;-79
2022/03/21 08:23:11;;;;;;;28.55;14.35;;;8.60;99.90;;;;;;5065507;28;20048;-79
2022/03/21 08:25:39;;;;;;;28.02;13.95;;;8.70;99.90;;;;;;5048093;28;20040;-80
2022/03/21 08:28:06;;;;;;;22.08;14.75;;;8.80;99.90;;;;;;5065083;28;20052;-79
2022/03/21 08:30:35;;;;;;;23.02;13.68;;;9.00;99.90;;;;;;5065318;28;20127;-80
2022/03/21 08:33:02;;;;;;;26.80;13.70;;;9.10;99.90;;;;;;5032233;28;20040;-79
2022/03/21 08:35:30;;;;;;;22.80;12.80;;;9.20;99.90;;;;;;5032198;28;20062;-80
2022/03/21 08:37:56;;;;;;;25.38;13.55;;;9.30;99.90;;;;;;5048158;28;20048;-79
2022/03/21 08:40:22;;;;;;;21.33;12.65;;;9.50;99.90;;;;;;5048980;28;20036;-80
2022/03/21 08:42:48;;;;;;;20.20;12.70;;;9.60;99.90;;;;;;5031459;28;20509;-80
2022/03/21 08:45:15;;;;;;;17.90;11.70;;;9.80;99.90;;;;;;5066940;28;20052;-79
2022/03/21 08:47:42;;;;;;;21.88;12.75;;;9.90;99.90;;;;;;5066350;28;20445;-79
2022/03/21 08:50:08;;;;;;;25.00;13.77;;;10.10;99.90;;;;;;5064689;28;20141;-79
2022/03/21 08:52:34;;;;;;;22.17;12.93;;;10.20;99.90;;;;;;5066400;28;20055;-80
2022/03/21 08:55:00;;;;;;;27.08;13.77;;;10.40;99.90;;;;;;5064316;28;20040;-80
2022/03/21 08:57:26;;;;;;;23.63;13.18;;;10.50;99.90;;;;;;5066114;28;20064;-79
2022/03/21 08:59:55;;;;;;;20.85;12.70;;;10.50;99.90;;;;;;5047812;28;20075;-80
2022/03/21 09:02:20;;;;;;;25.23;13.88;;;10.70;99.90;;;;;;5065922;28;20405;-80
2022/03/21 09:04:46;;;;;;;22.48;13.15;;;10.90;99.90;;;;;;5064859;28;20048;-80
2022/03/21 09:07:13;;;;;;;25.17;14.20;;;11.20;99.90;;;;;;5064866;28;20047;-80
2022/03/21 09:09:39;;;;;;;23.75;12.85;;;11.40;99.90;;;;;;5065121;28;20458;-80
2022/03/21 09:12:06;;;;;;;29.67;12.57;;;11.60;99.90;;;;;;5065661;28;20045;-80
2022/03/21 09:14:32;;;;;;;22.98;13.07;;;11.80;99.90;;;;;;5048027;28;20044;-80
2022/03/21 09:16:59;;;;;;;24.55;12.85;;;11.90;99.90;;;;;;5065465;28;20135;-80
2022/03/21 09:19:24;;;;;;;23.45;12.80;;;12.80;99.90;;;;;;5064854;28;20056;-80
2022/03/21 09:21:51;;;;;;;22.70;13.25;;;12.00;99.90;;;;;;5066111;28;20044;-80
2022/03/21 09:24:17;;;;;;;24.98;12.02;;;12.10;99.90;;;;;;5064591;28;20045;-80
2022/03/21 09:26:42;;;;;;;27.45;12.95;;;12.10;99.90;;;;;;5065796;28;20473;-80
2022/03/21 09:29:09;;;;;;;23.30;12.35;;;12.10;99.90;;;;;;5064507;28;20048;-80
2022/03/21 09:31:41;;;;;;;27.88;12.40;;;12.20;99.90;;;;;;5047877;28;20491;-80
2022/03/21 09:34:12;;;;;;;14.33;8.67;;;12.30;99.90;;;;;;5065603;28;20056;-79
2022/03/21 09:36:38;;;;;;;19.13;12.20;;;12.40;99.90;;;;;;5064790;28;20044;-79
2022/03/21 09:39:06;;;;;;;22.80;12.98;;;12.50;99.90;;;;;;5065773;28;20052;-78
2022/03/21 09:41:32;;;;;;;18.88;11.25;;;12.70;99.90;;;;;;5065531;28;20051;-78
2022/03/21 09:44:01;;;;;;;23.40;12.50;;;13.00;99.90;;;;;;5064826;28;20213;-78
2022/03/21 09:46:27;;;;;;;16.58;11.60;;;13.20;99.90;;;;;;5065535;28;20408;-79
2022/03/21 09:48:54;;;;;;;20.90;12.43;;;13.40;99.30;;;;;;5064193;28;20041;-79
2022/03/21 09:51:28;;;;;;;20.80;11.02;;;13.60;97.10;;;;;;5047608;28;20037;-79
2022/03/21 09:53:56;;;;;;;19.73;11.82;;;13.70;90.40;;;;;;5064573;28;20064;-80
2022/03/21 09:56:22;;;;;;;20.02;12.02;;;13.80;94.00;;;;;;5031610;28;20438;-79
2022/03/21 09:58:49;;;;;;;19.90;11.63;;;13.90;92.70;;;;;;5030757;28;20036;-79
2022/03/21 10:01:16;;;;;;;18.35;11.23;;;14.00;92.10;;;;;;5047901;28;20062;-80
2022/03/21 10:03:42;;;;;;;23.45;12.23;;;14.20;89.10;;;;;;5063693;28;20056;-79
2022/03/21 10:06:49;;;;;;;19.38;11.98;;;14.30;83.10;;;;;;5064347;28;20380;-80
2022/03/21 10:09:19;;;;;;;18.52;11.80;;;14.40;67.00;;;;;;5063079;28;20515;-80
2022/03/21 10:11:52;;;;;;;18.25;12.27;;;14.50;79.00;;;;;;5045814;28;20504;-79
2022/03/21 10:14:21;;;;;;;17.67;11.38;;;14.60;71.70;;;;;;5040380;28;20143;-79
2022/03/21 10:16:52;;;;;;;24.48;11.70;;;14.70;72.00;;;;;;5067173;28;20187;-79
2022/03/21 10:19:17;;;;;;;15.55;10.05;;;14.70;65.90;;;;;;5051051;28;20067;-80
2022/03/21 10:22:06;;;;;;;16.67;10.15;;;14.80;69.40;;;;;;5069229;28;20040;-79
2022/03/21 10:24:38;;;;;;;17.52;10.60;;;14.80;60.30;;;;;;5067494;28;20078;-80
2022/03/21 10:27:05;;;;;;;18.17;11.15;;;14.90;60.40;;;;;;5068881;28;20048;-80
2022/03/21 10:29:31;;;;;;;17.00;11.02;;;14.90;61.80;;;;;;5068727;28;20053;-80
2022/03/21 10:31:58;;;;;;;15.80;10.35;;;14.90;61.60;;;;;;5069497;28;20040;-80
2022/03/21 10:34:30;;;;;;;18.77;11.40;;;14.90;60.20;;;;;;5051143;28;20439;-80
2022/03/21 10:37:14;;;;;;;19.25;10.93;;;14.90;59.90;;;;;;5050905;28;20052;-79
2022/03/21 10:39:50;;;;;;;18.00;11.70;;;14.70;56.70;;;;;;5067548;28;20145;-79
2022/03/21 10:42:16;;;;;;;18.88;10.98;;;14.70;58.00;;;;;;5068504;28;20499;-80
2022/03/21 10:44:54;;;;;;;20.15;11.82;;;14.60;59.90;;;;;;5050728;28;20052;-80
2022/03/21 10:47:19;;;;;;;22.85;11.57;;;14.80;57.50;;;;;;5067069;28;20036;-79
2022/03/21 10:49:45;;;;;;;18.02;11.45;;;14.70;58.40;;;;;;5050915;28;20048;-79
2022/03/21 10:52:18;;;;;;;19.40;11.35;;;14.60;59.50;;;;;;5067857;28;20388;-80
2022/03/21 10:54:48;;;;;;;19.20;11.10;;;14.80;58.90;;;;;;5066761;28;20041;-79
2022/03/21 10:57:36;;;;;;;19.30;11.93;;;14.90;59.50;;;;;;5067326;28;20043;-80
2022/03/21 11:00:23;;;;;;;18.20;10.70;;;15.00;56.80;;;;;;5067317;28;20127;-80
2022/03/21 11:02:57;;;;;;;21.10;12.05;;;15.10;52.60;;;;;;5066590;28;20056;-80
2022/03/21 11:05:26;;;;;;;17.95;11.45;;;15.10;56.90;;;;;;5067106;28;20052;-80
2022/03/21 11:07:53;;;;;;;17.95;11.50;;;15.10;58.00;;;;;;5066427;28;20041;-79
2022/03/21 11:10:21;;;;;;;27.58;12.98;;;15.10;57.00;;;;;;5067465;28;20126;-78
2022/03/21 11:12:47;;;;;;;20.00;10.93;;;15.20;57.50;;;;;;5066376;28;20076;-78
2022/03/21 11:15:13;;;;;;;24.38;11.60;;;15.30;57.60;;;;;;5050298;28;20139;-78
2022/03/21 11:17:42;;;;;;;17.45;11.38;;;15.40;57.70;;;;;;5067129;28;20137;-78
2022/03/21 11:20:09;;;;;;;15.88;11.13;;;15.50;57.20;;;;;;5066553;28;20433;-78
2022/03/21 11:22:37;;;;;;;18.98;12.27;;;15.50;56.60;;;;;;5066617;28;20037;-79
2022/03/21 11:25:08;;;;;;;21.08;11.95;;;15.60;57.00;;;;;;5048547;28;20125;-77
2022/03/21 11:28:13;;;;;;;21.73;11.95;;;15.70;56.70;;;;;;5049938;28;20052;-77
2022/03/21 11:31:16;;;;;;;18.77;11.32;;;15.80;55.90;;;;;;5067066;28;20420;-78
2022/03/21 11:33:52;;;;;;;;;;;15.80;54.80;;;;;;5050176;28;20048;-78
2022/03/21 11:36:17;;;;;;;20.55;11.20;;;15.90;48.10;;;;;;5067148;28;19928;-78
2022/03/21 11:38:45;;;;;;;17.38;11.07;;;15.90;56.90;;;;;;5050230;28;20553;-78
2022/03/21 11:41:22;;;;;;;18.48;11.05;;;16.10;56.20;;;;;;5048923;28;20044;-78
2022/03/21 11:44:06;;;;;;;20.02;11.82;;;16.10;50.50;;;;;;5066305;28;20056;-78
2022/03/21 11:46:33;;;;;;;17.77;10.82;;;16.00;50.90;;;;;;5049038;28;20044;-78
2022/03/21 11:49:01;;;;;;;18.48;11.30;;;16.00;54.60;;;;;;5066301;28;20083;-78
2022/03/21 11:51:35;;;;;;;17.40;11.02;;;16.10;54.30;;;;;;5049622;28;20450;-78
2022/03/21 11:54:02;;;;;;;19.85;11.95;;;16.10;52.90;;;;;;5066187;28;20048;-78
2022/03/21 11:56:40;;;;;;;18.52;10.82;;;16.10;53.40;;;;;;5067435;28;20554;-78
2022/03/21 11:59:06;;;;;;;16.75;10.57;;;16.20;53.00;;;;;;5065517;28;20090;-78
2022/03/21 12:01:32;;;;;;;20.55;10.63;;;16.30;53.40;;;;;;5067260;28;20132;-78
2022/03/21 12:04:24;;;;;;;15.45;10.10;;;16.40;53.10;;;;;;5066025;28;20119;-79
2022/03/21 12:06:50;;;;;;;16.48;11.23;;;16.50;49.30;;;;;;5064686;28;20836;-79
2022/03/21 12:09:16;;;;;;;19.75;10.93;;;16.60;52.30;;;;;;5033359;28;20454;-78
2022/03/21 12:11:46;;;;;;;20.08;11.82;;;16.60;52.30;;;;;;5016641;28;20426;-78
2022/03/21 12:14:21;;;;;;;20.02;12.25;;;16.60;52.30;;;;;;5065963;28;20059;-78
2022/03/21 12:16:48;;;;;;;20.08;10.88;;;16.60;51.60;;;;;;5048954;28;20403;-78
2022/03/21 12:19:14;;;;;;;17.33;10.80;;;16.70;52.80;;;;;;5066012;28;20404;-78
2022/03/21 12:21:39;;;;;;;23.83;11.23;;;16.80;53.00;;;;;;5049002;28;20043;-78
2022/03/21 12:24:16;;;;;;;19.20;11.48;;;16.80;52.10;;;;;;5048410;28;20052;-78
2022/03/21 12:26:54;;;;;;;22.67;10.27;;;16.80;51.40;;;;;;5048962;28;20276;-78
2022/03/21 12:29:33;;;;;;;17.52;10.20;;;17.00;49.90;;;;;;5048832;28;20376;-78
2022/03/21 12:32:22;;;;;;;19.02;10.43;;;16.90;51.00;;;;;;5065924;28;20430;-79
2022/03/21 12:34:49;;;;;;;16.00;10.18;;;17.00;48.40;;;;;;5066577;28;20537;-79
2022/03/21 12:37:36;;;;;;;15.70;9.35;;;17.10;51.40;;;;;;5064576;28;20127;-79
2022/03/21 12:40:03;;;;;;;16.88;10.63;;;17.10;48.80;;;;;;5065695;28;20044;-79
2022/03/21 12:42:29;;;;;;;20.45;10.93;;;17.10;49.90;;;;;;5048144;28;20048;-79
2022/03/21 12:44:55;;;;;;;15.77;9.65;;;17.10;50.90;;;;;;5066641;28;20110;-79
2022/03/21 12:47:22;;;;;;;25.67;12.23;;;17.20;51.20;;;;;;5065482;28;20040;-79
2022/03/21 12:49:49;;;;;;;19.35;10.93;;;17.30;51.80;;;;;;5047828;28;20049;-79
2022/03/21 12:52:28;;;;;;;19.85;11.30;;;17.40;50.80;;;;;;5048539;28;20048;-80
2022/03/21 12:54:57;;;;;;;20.00;10.30;;;17.50;50.20;;;;;;5048081;28;20051;-80
2022/03/21 12:57:23;;;;;;;15.38;9.40;;;17.50;50.50;;;;;;5032956;28;20493;-80